sensor_id;sensor_type;location;lat;lon;timestamp;pressure;altitude;pressure_sealevel;temperature;humidity
63447;BME280;49577;49.872;6.190;2022-08-11T00:02:22;99944.02;;;15.61;55.88
63447;BME280;49577;49.872;6.190;2022-08-11T00:04:50;99944.67;;;15.64;56.12
63447;BME280;49577;49.872;6.190;2022-08-11T00:07:15;99948.65;;;15.65;55.90
63447;BME280;49577;49.872;6.190;2022-08-11T00:09:41;99950.52;;;15.61;55.68
63447;BME280;49577;49.872;6.190;2022-08-11T00:12:11;99948.52;;;15.48;55.70
63447;BME280;49577;49.872;6.190;2022-08-11T00:14:37;99942.73;;;15.43;56.29
63447;BME280;49577;49.872;6.190;2022-08-11T00:17:10;99941.61;;;15.39;56.42
63447;BME280;49577;49.872;6.190;2022-08-11T00:19:58;99939.99;;;15.31;56.79
63447;BME280;49577;49.872;6.190;2022-08-11T00:22:23;99942.08;;;15.22;56.94
63447;BME280;49577;49.872;6.190;2022-08-11T00:24:49;99942.73;;;15.16;57.13
63447;BME280;49577;49.872;6.190;2022-08-11T00:27:14;99943.18;;;15.10;57.47
63447;BME280;49577;49.872;6.190;2022-08-11T00:29:39;99940.84;;;15.04;57.47
63447;BME280;49577;49.872;6.190;2022-08-11T00:32:05;99942.11;;;14.97;57.63
63447;BME280;49577;49.872;6.190;2022-08-11T00:34:33;99943.36;;;14.91;57.74
63447;BME280;49577;49.872;6.190;2022-08-11T00:37:07;99943.31;;;14.89;57.85
63447;BME280;49577;49.872;6.190;2022-08-11T00:39:34;99943.17;;;14.87;58.24
63447;BME280;49577;49.872;6.190;2022-08-11T00:57:24;99958.58;;;14.60;58.92
63447;BME280;49577;49.872;6.190;2022-08-11T01:00:05;99959.01;;;14.56;59.01
63447;BME280;49577;49.872;6.190;2022-08-11T01:02:47;99958.61;;;14.54;58.95
63447;BME280;49577;49.872;6.190;2022-08-11T01:05:26;99956.80;;;14.55;59.11
63447;BME280;49577;49.872;6.190;2022-08-11T01:10:58;99955.36;;;14.49;59.05
63447;BME280;49577;49.872;6.190;2022-08-11T01:21:09;99956.34;;;14.32;59.92
63447;BME280;49577;49.872;6.190;2022-08-11T01:31:37;99950.11;;;14.19;60.06
63447;BME280;49577;49.872;6.190;2022-08-11T01:48:08;99963.29;;;14.07;61.01
63447;BME280;49577;49.872;6.190;2022-08-11T01:58:22;99972.27;;;13.94;60.97
63447;BME280;49577;49.872;6.190;2022-08-11T02:03:35;99977.76;;;13.86;61.31
63447;BME280;49577;49.872;6.190;2022-08-11T02:08:51;99973.88;;;13.78;61.83
63447;BME280;49577;49.872;6.190;2022-08-11T02:11:25;99974.66;;;13.72;62.01
63447;BME280;49577;49.872;6.190;2022-08-11T02:30:23;99976.83;;;13.61;62.77
63447;BME280;49577;49.872;6.190;2022-08-11T02:33:07;99976.71;;;13.63;62.79
63447;BME280;49577;49.872;6.190;2022-08-11T02:49:17;99974.55;;;13.44;62.88
63447;BME280;49577;49.872;6.190;2022-08-11T02:54:44;99975.43;;;13.28;63.38
63447;BME280;49577;49.872;6.190;2022-08-11T03:02:41;99974.92;;;13.28;63.59
63447;BME280;49577;49.872;6.190;2022-08-11T03:10:12;99972.11;;;13.07;63.86
63447;BME280;49577;49.872;6.190;2022-08-11T03:15:48;99971.52;;;13.10;64.08
63447;BME280;49577;49.872;6.190;2022-08-11T03:18:41;99970.13;;;13.02;64.07
63447;BME280;49577;49.872;6.190;2022-08-11T03:21:45;99973.64;;;12.95;64.17
63447;BME280;49577;49.872;6.190;2022-08-11T03:29:34;99971.85;;;12.81;64.67
63447;BME280;49577;49.872;6.190;2022-08-11T03:34:27;99971.22;;;12.81;64.89
63447;BME280;49577;49.872;6.190;2022-08-11T03:46:11;99967.65;;;12.71;65.26
63447;BME280;49577;49.872;6.190;2022-08-11T03:51:17;99972.66;;;12.70;65.38
63447;BME280;49577;49.872;6.190;2022-08-11T03:56:44;99973.59;;;12.63;65.54
63447;BME280;49577;49.872;6.190;2022-08-11T04:09:52;99976.45;;;12.47;65.95
63447;BME280;49577;49.872;6.190;2022-08-11T04:12:28;99973.23;;;12.42;66.03
63447;BME280;49577;49.872;6.190;2022-08-11T04:15:06;99976.61;;;12.41;66.13
63447;BME280;49577;49.872;6.190;2022-08-11T04:18:04;99976.08;;;12.38;66.35
63447;BME280;49577;49.872;6.190;2022-08-11T04:21:01;99973.17;;;12.34;66.22
63447;BME280;49577;49.872;6.190;2022-08-11T04:26:35;99973.33;;;12.29;66.47
63447;BME280;49577;49.872;6.190;2022-08-11T04:57:11;99983.67;;;12.35;66.86
63447;BME280;49577;49.872;6.190;2022-08-11T05:00:04;99979.85;;;12.37;66.95
63447;BME280;49577;49.872;6.190;2022-08-11T05:05:50;99979.77;;;12.41;66.80
63447;BME280;49577;49.872;6.190;2022-08-11T05:19:38;99986.20;;;12.74;66.62
63447;BME280;49577;49.872;6.190;2022-08-11T05:22:24;99989.44;;;12.86;66.39
63447;BME280;49577;49.872;6.190;2022-08-11T05:25:13;99985.65;;;13.09;66.09
63447;BME280;49577;49.872;6.190;2022-08-11T05:30:44;99989.08;;;14.48;64.14
63447;BME280;49577;49.872;6.190;2022-08-11T05:33:32;99984.28;;;15.62;61.83
63447;BME280;49577;49.872;6.190;2022-08-11T05:36:27;99986.59;;;16.59;59.74
63447;BME280;49577;49.872;6.190;2022-08-11T05:39:10;99987.43;;;17.40;57.68
63447;BME280;49577;49.872;6.190;2022-08-11T05:41:56;99989.39;;;18.34;55.67
63447;BME280;49577;49.872;6.190;2022-08-11T05:44:43;99986.71;;;19.25;53.49
63447;BME280;49577;49.872;6.190;2022-08-11T05:47:27;99989.83;;;20.14;51.61
63447;BME280;49577;49.872;6.190;2022-08-11T05:50:12;99991.14;;;20.99;49.74
63447;BME280;49577;49.872;6.190;2022-08-11T05:52:57;99993.80;;;21.74;48.00
63447;BME280;49577;49.872;6.190;2022-08-11T05:55:41;99996.52;;;22.52;46.43
63447;BME280;49577;49.872;6.190;2022-08-11T05:58:26;99998.09;;;23.13;44.98
63447;BME280;49577;49.872;6.190;2022-08-11T06:00:56;99997.67;;;23.56;44.30
63447;BME280;49577;49.872;6.190;2022-08-11T06:03:26;99993.29;;;23.90;43.46
63447;BME280;49577;49.872;6.190;2022-08-11T06:05:53;99993.52;;;24.29;42.38
63447;BME280;49577;49.872;6.190;2022-08-11T06:08:18;99996.04;;;24.66;41.52
63447;BME280;49577;49.872;6.190;2022-08-11T06:10:51;99997.48;;;25.07;40.52
63447;BME280;49577;49.872;6.190;2022-08-11T06:13:16;99996.42;;;25.32;39.48
63447;BME280;49577;49.872;6.190;2022-08-11T06:15:45;99995.05;;;25.55;38.93
63447;BME280;49577;49.872;6.190;2022-08-11T06:18:11;99997.59;;;26.00;38.22
63447;BME280;49577;49.872;6.190;2022-08-11T06:20:46;99993.89;;;26.54;37.37
63447;BME280;49577;49.872;6.190;2022-08-11T06:23:12;99993.52;;;27.11;36.47
63447;BME280;49577;49.872;6.190;2022-08-11T06:25:39;99995.14;;;27.43;35.16
63447;BME280;49577;49.872;6.190;2022-08-11T06:28:05;99994.58;;;27.59;34.45
63447;BME280;49577;49.872;6.190;2022-08-11T06:30:38;99993.17;;;27.82;33.87
63447;BME280;49577;49.872;6.190;2022-08-11T06:33:08;99990.40;;;28.27;33.24
63447;BME280;49577;49.872;6.190;2022-08-11T06:35:37;99992.74;;;28.71;32.57
63447;BME280;49577;49.872;6.190;2022-08-11T06:43:17;99996.33;;;29.62;31.06
63447;BME280;49577;49.872;6.190;2022-08-11T06:46:00;99995.13;;;30.02;30.44
63447;BME280;49577;49.872;6.190;2022-08-11T06:48:27;99995.27;;;30.36;30.03
63447;BME280;49577;49.872;6.190;2022-08-11T06:51:04;99994.70;;;30.70;29.61
63447;BME280;49577;49.872;6.190;2022-08-11T06:53:46;99999.67;;;31.17;29.44
63447;BME280;49577;49.872;6.190;2022-08-11T06:56:13;99993.91;;;31.56;28.74
63447;BME280;49577;49.872;6.190;2022-08-11T06:58:58;99992.00;;;32.08;27.98
63447;BME280;49577;49.872;6.190;2022-08-11T07:04:10;99989.58;;;32.75;26.96
63447;BME280;49577;49.872;6.190;2022-08-11T07:09:44;99994.74;;;33.64;24.82
63447;BME280;49577;49.872;6.190;2022-08-11T07:12:40;99995.23;;;34.36;24.31
63447;BME280;49577;49.872;6.190;2022-08-11T07:15:27;99993.67;;;35.23;22.22
63447;BME280;49577;49.872;6.190;2022-08-11T07:18:07;99990.52;;;35.86;20.84
63447;BME280;49577;49.872;6.190;2022-08-11T07:20:53;99990.78;;;36.42;19.90
63447;BME280;49577;49.872;6.190;2022-08-11T07:23:38;99989.77;;;36.87;19.27
63447;BME280;49577;49.872;6.190;2022-08-11T07:26:23;99988.35;;;37.13;18.70
63447;BME280;49577;49.872;6.190;2022-08-11T07:29:11;99993.79;;;37.46;18.23
63447;BME280;49577;49.872;6.190;2022-08-11T07:31:40;99992.87;;;37.67;17.74
63447;BME280;49577;49.872;6.190;2022-08-11T07:36:32;99989.83;;;37.70;17.50
63447;BME280;49577;49.872;6.190;2022-08-11T07:39:01;99993.19;;;37.83;17.58
63447;BME280;49577;49.872;6.190;2022-08-11T07:41:26;99989.41;;;38.07;17.17
63447;BME280;49577;49.872;6.190;2022-08-11T07:43:56;99989.70;;;38.14;17.03
63447;BME280;49577;49.872;6.190;2022-08-11T07:46:34;99990.94;;;38.20;16.79
63447;BME280;49577;49.872;6.190;2022-08-11T07:49:17;99989.59;;;38.28;16.83
63447;BME280;49577;49.872;6.190;2022-08-11T07:52:01;99987.77;;;38.38;16.50
63447;BME280;49577;49.872;6.190;2022-08-11T07:54:45;99988.52;;;38.53;16.40
63447;BME280;49577;49.872;6.190;2022-08-11T07:57:11;99992.29;;;38.80;16.12
63447;BME280;49577;49.872;6.190;2022-08-11T07:59:55;99989.08;;;38.95;16.06
63447;BME280;49577;49.872;6.190;2022-08-11T08:02:39;99987.30;;;39.07;15.58
63447;BME280;49577;49.872;6.190;2022-08-11T08:05:25;99989.00;;;39.18;15.38
63447;BME280;49577;49.872;6.190;2022-08-11T08:08:09;99990.42;;;39.31;15.11
63447;BME280;49577;49.872;6.190;2022-08-11T08:10:53;99992.10;;;39.42;15.01
63447;BME280;49577;49.872;6.190;2022-08-11T08:13:38;99991.73;;;39.57;14.66
63447;BME280;49577;49.872;6.190;2022-08-11T08:16:22;99985.54;;;39.64;14.55
63447;BME280;49577;49.872;6.190;2022-08-11T08:19:06;99986.06;;;39.48;14.49
63447;BME280;49577;49.872;6.190;2022-08-11T08:21:31;99981.52;;;39.43;14.47
63447;BME280;49577;49.872;6.190;2022-08-11T08:23:57;99981.33;;;39.56;14.49
63447;BME280;49577;49.872;6.190;2022-08-11T08:26:22;99982.58;;;39.58;14.46
63447;BME280;49577;49.872;6.190;2022-08-11T08:29:06;99982.77;;;39.84;14.50
63447;BME280;49577;49.872;6.190;2022-08-11T08:31:50;99979.77;;;40.14;14.25
63447;BME280;49577;49.872;6.190;2022-08-11T08:34:16;99979.36;;;40.28;14.00
63447;BME280;49577;49.872;6.190;2022-08-11T08:36:46;99976.34;;;40.46;13.99
63447;BME280;49577;49.872;6.190;2022-08-11T08:39:12;99975.08;;;40.77;13.84
63447;BME280;49577;49.872;6.190;2022-08-11T08:41:38;99970.61;;;41.08;13.52
63447;BME280;49577;49.872;6.190;2022-08-11T08:44:06;99968.91;;;41.36;13.17
63447;BME280;49577;49.872;6.190;2022-08-11T08:46:34;99963.80;;;41.19;13.02
63447;BME280;49577;49.872;6.190;2022-08-11T08:49:00;99962.55;;;41.19;13.07
63447;BME280;49577;49.872;6.190;2022-08-11T08:51:27;99961.28;;;41.41;12.89
63447;BME280;49577;49.872;6.190;2022-08-11T08:54:18;99960.81;;;41.55;12.65
63447;BME280;49577;49.872;6.190;2022-08-11T08:56:44;99956.30;;;41.63;12.71
63447;BME280;49577;49.872;6.190;2022-08-11T08:59:11;99956.92;;;41.41;12.82
63447;BME280;49577;49.872;6.190;2022-08-11T09:04:21;99953.65;;;41.79;12.73
63447;BME280;49577;49.872;6.190;2022-08-11T09:06:47;99956.56;;;41.87;12.48
63447;BME280;49577;49.872;6.190;2022-08-11T09:09:12;99957.11;;;41.92;11.89
63447;BME280;49577;49.872;6.190;2022-08-11T09:11:39;99955.86;;;41.43;11.28
63447;BME280;49577;49.872;6.190;2022-08-11T09:14:17;99955.98;;;40.82;11.48
63447;BME280;49577;49.872;6.190;2022-08-11T09:16:44;99959.41;;;40.57;11.69
63447;BME280;49577;49.872;6.190;2022-08-11T09:19:12;99959.10;;;40.56;11.83
63447;BME280;49577;49.872;6.190;2022-08-11T09:21:40;99957.36;;;40.61;11.83
63447;BME280;49577;49.872;6.190;2022-08-11T09:24:06;99956.33;;;40.80;11.74
63447;BME280;49577;49.872;6.190;2022-08-11T09:26:50;99950.13;;;41.17;11.70
63447;BME280;49577;49.872;6.190;2022-08-11T09:29:27;99956.92;;;41.43;11.70
63447;BME280;49577;49.872;6.190;2022-08-11T09:31:53;99942.71;;;41.45;11.65
63447;BME280;49577;49.872;6.190;2022-08-11T09:34:18;99947.45;;;41.44;11.49
63447;BME280;49577;49.872;6.190;2022-08-11T09:36:44;99944.27;;;41.25;11.26
63447;BME280;49577;49.872;6.190;2022-08-11T09:39:29;99936.73;;;41.11;11.26
63447;BME280;49577;49.872;6.190;2022-08-11T09:42:14;99937.10;;;40.75;11.31
63447;BME280;49577;49.872;6.190;2022-08-11T09:44:40;99931.34;;;40.51;11.56
63447;BME280;49577;49.872;6.190;2022-08-11T09:47:28;99927.70;;;40.21;11.67
63447;BME280;49577;49.872;6.190;2022-08-11T09:49:56;99930.45;;;40.12;11.67
63447;BME280;49577;49.872;6.190;2022-08-11T09:52:23;99921.58;;;40.19;11.65
63447;BME280;49577;49.872;6.190;2022-08-11T09:54:50;99920.71;;;40.32;11.69
63447;BME280;49577;49.872;6.190;2022-08-11T09:57:20;99920.15;;;40.58;11.67
63447;BME280;49577;49.872;6.190;2022-08-11T10:00:05;99921.02;;;40.78;11.51
63447;BME280;49577;49.872;6.190;2022-08-11T10:02:31;99920.16;;;40.56;11.57
63447;BME280;49577;49.872;6.190;2022-08-11T10:04:57;99915.32;;;40.25;11.58
63447;BME280;49577;49.872;6.190;2022-08-11T10:07:46;99913.39;;;40.06;11.83
63447;BME280;49577;49.872;6.190;2022-08-11T10:10:14;99918.38;;;40.09;11.72
63447;BME280;49577;49.872;6.190;2022-08-11T10:12:41;99906.54;;;39.95;11.99
63447;BME280;49577;49.872;6.190;2022-08-11T10:15:11;99904.13;;;39.83;11.95
63447;BME280;49577;49.872;6.190;2022-08-11T10:17:59;99904.48;;;39.81;12.03
63447;BME280;49577;49.872;6.190;2022-08-11T10:20:45;99907.14;;;39.87;11.67
63447;BME280;49577;49.872;6.190;2022-08-11T10:23:14;99901.59;;;39.98;11.84
63447;BME280;49577;49.872;6.190;2022-08-11T10:25:58;99897.98;;;40.16;11.66
63447;BME280;49577;49.872;6.190;2022-08-11T10:28:42;99897.96;;;40.09;11.51
63447;BME280;49577;49.872;6.190;2022-08-11T10:31:08;99899.42;;;40.03;11.72
63447;BME280;49577;49.872;6.190;2022-08-11T10:33:51;99891.95;;;40.23;11.75
63447;BME280;49577;49.872;6.190;2022-08-11T10:38:56;99884.83;;;40.03;11.51
63447;BME280;49577;49.872;6.190;2022-08-11T10:41:22;99886.25;;;39.74;11.90
63447;BME280;49577;49.872;6.190;2022-08-11T10:44:06;99881.77;;;39.41;11.99
63447;BME280;49577;49.872;6.190;2022-08-11T10:46:33;99886.77;;;39.08;12.31
63447;BME280;49577;49.872;6.190;2022-08-11T10:49:17;99891.19;;;38.71;12.27
63447;BME280;49577;49.872;6.190;2022-08-11T10:51:44;99897.40;;;38.36;12.56
63447;BME280;49577;49.872;6.190;2022-08-11T10:54:28;99881.59;;;38.48;12.71
63447;BME280;49577;49.872;6.190;2022-08-11T10:57:13;99867.17;;;38.93;12.84
63447;BME280;49577;49.872;6.190;2022-08-11T10:59:57;99869.08;;;39.29;12.71
63447;BME280;49577;49.872;6.190;2022-08-11T11:02:22;99860.45;;;39.24;12.44
63447;BME280;49577;49.872;6.190;2022-08-11T11:07:20;99851.45;;;40.07;11.95
63447;BME280;49577;49.872;6.190;2022-08-11T11:09:55;99854.50;;;40.38;11.91
63447;BME280;49577;49.872;6.190;2022-08-11T11:15:11;99844.05;;;39.88;12.22
63447;BME280;49577;49.872;6.190;2022-08-11T11:17:59;99848.73;;;39.29;12.30
63447;BME280;49577;49.872;6.190;2022-08-11T11:23:11;99835.94;;;39.41;12.67
63447;BME280;49577;49.872;6.190;2022-08-11T11:33:58;99827.61;;;40.02;12.33
63447;BME280;49577;49.872;6.190;2022-08-11T11:36:30;99823.40;;;40.36;12.42
63447;BME280;49577;49.872;6.190;2022-08-11T11:39:01;99831.27;;;40.76;12.11
63447;BME280;49577;49.872;6.190;2022-08-11T11:41:27;99828.96;;;40.86;11.64
63447;BME280;49577;49.872;6.190;2022-08-11T11:43:53;99824.32;;;40.85;11.66
63447;BME280;49577;49.872;6.190;2022-08-11T11:46:19;99821.70;;;40.60;11.74
63447;BME280;49577;49.872;6.190;2022-08-11T11:48:44;99825.73;;;39.81;12.00
63447;BME280;49577;49.872;6.190;2022-08-11T11:51:09;99823.50;;;38.50;12.75
63447;BME280;49577;49.872;6.190;2022-08-11T11:53:38;99814.49;;;37.43;13.53
63447;BME280;49577;49.872;6.190;2022-08-11T11:56:03;99814.62;;;36.66;14.22
63447;BME280;49577;49.872;6.190;2022-08-11T11:58:29;99815.11;;;36.15;14.65
63447;BME280;49577;49.872;6.190;2022-08-11T12:01:13;99812.09;;;35.76;15.05
63447;BME280;49577;49.872;6.190;2022-08-11T12:03:42;99806.41;;;35.55;15.27
63447;BME280;49577;49.872;6.190;2022-08-11T12:06:09;99810.00;;;35.28;15.23
63447;BME280;49577;49.872;6.190;2022-08-11T12:08:38;99794.77;;;35.12;15.14
63447;BME280;49577;49.872;6.190;2022-08-11T12:11:05;99793.23;;;35.08;15.33
63447;BME280;49577;49.872;6.190;2022-08-11T12:14:03;99803.73;;;34.89;15.10
63447;BME280;49577;49.872;6.190;2022-08-11T12:16:29;99796.27;;;34.69;14.95
63447;BME280;49577;49.872;6.190;2022-08-11T12:18:55;99788.70;;;34.49;15.06
63447;BME280;49577;49.872;6.190;2022-08-11T12:21:22;99797.55;;;34.38;15.31
63447;BME280;49577;49.872;6.190;2022-08-11T12:23:48;99797.52;;;34.25;15.47
63447;BME280;49577;49.872;6.190;2022-08-11T12:26:32;99787.27;;;34.15;15.54
63447;BME280;49577;49.872;6.190;2022-08-11T12:29:14;99775.90;;;33.94;15.94
63447;BME280;49577;49.872;6.190;2022-08-11T12:31:40;99776.67;;;33.91;16.10
63447;BME280;49577;49.872;6.190;2022-08-11T12:34:07;99775.77;;;33.92;16.07
63447;BME280;49577;49.872;6.190;2022-08-11T12:36:37;99761.74;;;33.93;16.08
63447;BME280;49577;49.872;6.190;2022-08-11T12:39:04;99758.66;;;33.95;16.04
63447;BME280;49577;49.872;6.190;2022-08-11T12:41:30;99757.94;;;33.93;16.17
63447;BME280;49577;49.872;6.190;2022-08-11T12:44:15;99756.65;;;33.93;16.14
63447;BME280;49577;49.872;6.190;2022-08-11T12:47:00;99751.49;;;33.90;16.08
63447;BME280;49577;49.872;6.190;2022-08-11T12:49:26;99749.89;;;33.76;16.10
63447;BME280;49577;49.872;6.190;2022-08-11T12:52:13;99751.20;;;33.50;16.28
63447;BME280;49577;49.872;6.190;2022-08-11T12:54:47;99750.11;;;33.44;16.56
63447;BME280;49577;49.872;6.190;2022-08-11T12:57:21;99748.01;;;33.41;16.19
63447;BME280;49577;49.872;6.190;2022-08-11T13:00:08;99749.94;;;33.47;15.96
63447;BME280;49577;49.872;6.190;2022-08-11T13:02:52;99753.13;;;33.43;15.85
63447;BME280;49577;49.872;6.190;2022-08-11T13:05:36;99756.86;;;33.41;15.76
63447;BME280;49577;49.872;6.190;2022-08-11T13:08:02;99745.55;;;33.37;15.77
63447;BME280;49577;49.872;6.190;2022-08-11T13:10:29;99741.91;;;33.42;15.64
63447;BME280;49577;49.872;6.190;2022-08-11T13:13:14;99738.38;;;33.50;15.57
63447;BME280;49577;49.872;6.190;2022-08-11T13:15:41;99745.55;;;33.50;15.43
63447;BME280;49577;49.872;6.190;2022-08-11T13:18:07;99738.00;;;33.29;15.37
63447;BME280;49577;49.872;6.190;2022-08-11T13:20:33;99745.55;;;33.18;15.51
63447;BME280;49577;49.872;6.190;2022-08-11T13:22:58;99729.79;;;33.06;15.59
63447;BME280;49577;49.872;6.190;2022-08-11T13:25:26;99725.95;;;33.05;15.91
63447;BME280;49577;49.872;6.190;2022-08-11T13:27:52;99728.69;;;33.01;15.88
63447;BME280;49577;49.872;6.190;2022-08-11T13:30:18;99722.55;;;32.89;16.09
63447;BME280;49577;49.872;6.190;2022-08-11T13:33:02;99712.89;;;32.83;16.29
63447;BME280;49577;49.872;6.190;2022-08-11T13:35:29;99720.48;;;32.88;16.25
63447;BME280;49577;49.872;6.190;2022-08-11T13:37:55;99713.55;;;32.86;16.38
63447;BME280;49577;49.872;6.190;2022-08-11T13:40:21;99708.05;;;32.92;16.38
63447;BME280;49577;49.872;6.190;2022-08-11T13:42:48;99694.77;;;32.93;16.15
63447;BME280;49577;49.872;6.190;2022-08-11T13:45:14;99708.25;;;32.80;16.14
63447;BME280;49577;49.872;6.190;2022-08-11T13:47:40;99706.90;;;32.67;16.06
63447;BME280;49577;49.872;6.190;2022-08-11T13:50:06;99705.23;;;32.53;16.07
63447;BME280;49577;49.872;6.190;2022-08-11T13:52:32;99707.70;;;32.47;15.96
63447;BME280;49577;49.872;6.190;2022-08-11T13:54:58;99701.01;;;32.41;16.20
63447;BME280;49577;49.872;6.190;2022-08-11T13:57:23;99696.23;;;32.30;16.44
63447;BME280;49577;49.872;6.190;2022-08-11T13:59:53;99694.01;;;32.26;16.57
63447;BME280;49577;49.872;6.190;2022-08-11T14:02:23;99688.70;;;32.14;16.46
63447;BME280;49577;49.872;6.190;2022-08-11T14:04:58;99691.73;;;32.05;16.61
63447;BME280;49577;49.872;6.190;2022-08-11T14:07:26;99696.18;;;32.01;16.83
63447;BME280;49577;49.872;6.190;2022-08-11T14:09:58;99695.05;;;31.96;16.94
63447;BME280;49577;49.872;6.190;2022-08-11T14:12:28;99685.20;;;31.91;17.08
63447;BME280;49577;49.872;6.190;2022-08-11T14:15:14;99688.92;;;31.94;17.23
63447;BME280;49577;49.872;6.190;2022-08-11T14:17:43;99681.45;;;31.86;17.12
63447;BME280;49577;49.872;6.190;2022-08-11T14:20:13;99680.84;;;31.76;17.01
63447;BME280;49577;49.872;6.190;2022-08-11T14:22:40;99670.59;;;31.68;17.23
63447;BME280;49577;49.872;6.190;2022-08-11T14:25:07;99668.73;;;31.76;17.44
63447;BME280;49577;49.872;6.190;2022-08-11T14:27:32;99669.42;;;31.81;17.48
63447;BME280;49577;49.872;6.190;2022-08-11T14:29:58;99661.20;;;31.77;17.31
63447;BME280;49577;49.872;6.190;2022-08-11T14:32:23;99660.95;;;31.71;17.43
63447;BME280;49577;49.872;6.190;2022-08-11T14:34:49;99657.65;;;31.75;17.46
63447;BME280;49577;49.872;6.190;2022-08-11T14:37:18;99657.66;;;31.74;17.57
63447;BME280;49577;49.872;6.190;2022-08-11T14:39:51;99656.13;;;31.66;17.84
63447;BME280;49577;49.872;6.190;2022-08-11T14:42:18;99655.23;;;31.57;17.49
63447;BME280;49577;49.872;6.190;2022-08-11T14:45:06;99661.30;;;31.44;17.54
63447;BME280;49577;49.872;6.190;2022-08-11T14:47:53;99658.90;;;31.39;17.84
63447;BME280;49577;49.872;6.190;2022-08-11T14:50:21;99658.90;;;31.37;17.93
63447;BME280;49577;49.872;6.190;2022-08-11T14:52:59;99651.02;;;31.26;18.06
63447;BME280;49577;49.872;6.190;2022-08-11T14:55:28;99649.76;;;31.16;18.28
63447;BME280;49577;49.872;6.190;2022-08-11T14:58:17;99650.89;;;31.08;18.03
63447;BME280;49577;49.872;6.190;2022-08-11T15:00:42;99646.09;;;31.01;18.11
63447;BME280;49577;49.872;6.190;2022-08-11T15:03:09;99646.09;;;31.01;18.53
63447;BME280;49577;49.872;6.190;2022-08-11T15:05:57;99653.02;;;30.99;18.31
63447;BME280;49577;49.872;6.190;2022-08-11T15:08:21;99643.42;;;30.90;18.19
63447;BME280;49577;49.872;6.190;2022-08-11T15:11:10;99643.50;;;30.85;18.28
63447;BME280;49577;49.872;6.190;2022-08-11T15:13:56;99634.90;;;30.87;18.40
63447;BME280;49577;49.872;6.190;2022-08-11T15:16:23;99640.43;;;30.90;18.69
63447;BME280;49577;49.872;6.190;2022-08-11T15:19:08;99635.27;;;30.87;18.71
63447;BME280;49577;49.872;6.190;2022-08-11T15:21:34;99638.83;;;30.89;18.60
63447;BME280;49577;49.872;6.190;2022-08-11T15:24:18;99633.11;;;30.83;18.52
63447;BME280;49577;49.872;6.190;2022-08-11T15:26:43;99632.15;;;30.78;18.64
63447;BME280;49577;49.872;6.190;2022-08-11T15:29:27;99633.92;;;30.73;18.90
63447;BME280;49577;49.872;6.190;2022-08-11T15:32:12;99629.71;;;30.74;19.18
63447;BME280;49577;49.872;6.190;2022-08-11T15:34:49;99634.02;;;30.69;19.11
63447;BME280;49577;49.872;6.190;2022-08-11T15:37:35;99631.79;;;30.64;19.25
63447;BME280;49577;49.872;6.190;2022-08-11T15:40:05;99624.98;;;30.63;18.87
63447;BME280;49577;49.872;6.190;2022-08-11T15:45:44;99615.59;;;30.51;19.16
63447;BME280;49577;49.872;6.190;2022-08-11T15:48:21;99605.46;;;30.46;19.30
63447;BME280;49577;49.872;6.190;2022-08-11T15:50:49;99601.00;;;30.44;19.23
63447;BME280;49577;49.872;6.190;2022-08-11T15:56:11;99611.39;;;30.36;19.39
63447;BME280;49577;49.872;6.190;2022-08-11T15:58:41;99613.38;;;30.33;19.36
63447;BME280;49577;49.872;6.190;2022-08-11T16:01:26;99608.42;;;30.26;19.39
63447;BME280;49577;49.872;6.190;2022-08-11T16:04:13;99603.02;;;30.22;19.43
63447;BME280;49577;49.872;6.190;2022-08-11T16:06:41;99599.80;;;30.16;19.32
63447;BME280;49577;49.872;6.190;2022-08-11T16:09:08;99597.75;;;30.10;19.42
63447;BME280;49577;49.872;6.190;2022-08-11T16:11:34;99590.52;;;30.05;19.66
63447;BME280;49577;49.872;6.190;2022-08-11T16:14:01;99591.32;;;30.06;19.57
63447;BME280;49577;49.872;6.190;2022-08-11T16:16:46;99594.02;;;30.05;19.75
63447;BME280;49577;49.872;6.190;2022-08-11T16:19:12;99587.45;;;30.02;19.85
63447;BME280;49577;49.872;6.190;2022-08-11T16:21:37;99588.95;;;30.02;19.87
63447;BME280;49577;49.872;6.190;2022-08-11T16:24:09;99586.16;;;29.98;20.09
63447;BME280;49577;49.872;6.190;2022-08-11T16:26:36;99587.23;;;29.91;20.19
63447;BME280;49577;49.872;6.190;2022-08-11T16:29:03;99581.94;;;29.86;20.37
63447;BME280;49577;49.872;6.190;2022-08-11T16:31:30;99579.95;;;29.87;20.52
63447;BME280;49577;49.872;6.190;2022-08-11T16:33:57;99580.16;;;29.90;20.92
63447;BME280;49577;49.872;6.190;2022-08-11T16:36:23;99585.61;;;29.89;20.91
63447;BME280;49577;49.872;6.190;2022-08-11T16:39:07;99591.70;;;29.87;20.61
63447;BME280;49577;49.872;6.190;2022-08-11T16:41:34;99589.02;;;29.81;20.81
63447;BME280;49577;49.872;6.190;2022-08-11T16:44:19;99586.38;;;29.75;20.76
63447;BME280;49577;49.872;6.190;2022-08-11T16:47:11;99586.27;;;29.67;20.74
63447;BME280;49577;49.872;6.190;2022-08-11T16:49:37;99581.71;;;29.60;20.79
63447;BME280;49577;49.872;6.190;2022-08-11T16:52:05;99585.41;;;29.56;21.00
63447;BME280;49577;49.872;6.190;2022-08-11T16:54:34;99580.91;;;29.54;21.13
63447;BME280;49577;49.872;6.190;2022-08-11T16:57:02;99585.58;;;29.53;21.14
63447;BME280;49577;49.872;6.190;2022-08-11T16:59:48;99579.54;;;29.49;21.32
63447;BME280;49577;49.872;6.190;2022-08-11T17:02:17;99580.54;;;29.49;21.39
63447;BME280;49577;49.872;6.190;2022-08-11T17:05:09;99585.80;;;29.44;21.24
63447;BME280;49577;49.872;6.190;2022-08-11T17:07:54;99587.83;;;29.40;21.42
63447;BME280;49577;49.872;6.190;2022-08-11T17:10:43;99584.63;;;29.35;21.28
63447;BME280;49577;49.872;6.190;2022-08-11T17:13:30;99582.63;;;29.29;21.59
63447;BME280;49577;49.872;6.190;2022-08-11T17:15:59;99578.89;;;29.23;21.90
63447;BME280;49577;49.872;6.190;2022-08-11T17:18:32;99581.30;;;29.18;22.00
63447;BME280;49577;49.872;6.190;2022-08-11T17:21:04;99577.95;;;29.16;21.95
63447;BME280;49577;49.872;6.190;2022-08-11T17:23:30;99575.71;;;29.15;22.04
63447;BME280;49577;49.872;6.190;2022-08-11T17:26:19;99584.33;;;29.12;22.12